sensor_id;sensor_type;location;lat;lon;timestamp;P1;durP1;ratioP1;P2;durP2;ratioP2
72493;SDS011;60520;49.182;-0.348;2023-12-04T00:00:00;2.58;;;1.58;;
72493;SDS011;60520;49.182;-0.348;2023-12-04T00:02:28;2.35;;;1.50;;
72493;SDS011;60520;49.182;-0.348;2023-12-04T00:04:56;3.17;;;1.40;;
72493;SDS011;60520;49.182;-0.348;2023-12-04T00:07:23;2.38;;;1.40;;
72493;SDS011;60520;49.182;-0.348;2023-12-04T00:09:50;2.42;;;1.30;;
72493;SDS011;60520;49.182;-0.348;2023-12-04T00:12:18;2.50;;;1.40;;
72493;SDS011;60520;49.182;-0.348;2023-12-04T00:14:45;1.35;;;1.20;;
72493;SDS011;60520;49.182;-0.348;2023-12-04T00:17:12;3.25;;;1.50;;
72493;SDS011;60520;49.182;-0.348;2023-12-04T00:19:39;2.00;;;1.40;;
72493;SDS011;60520;49.182;-0.348;2023-12-04T00:22:08;2.28;;;1.30;;
72493;SDS011;60520;49.182;-0.348;2023-12-04T00:24:36;1.85;;;1.35;;
72493;SDS011;60520;49.182;-0.348;2023-12-04T00:27:04;1.60;;;1.20;;
72493;SDS011;60520;49.182;-0.348;2023-12-04T00:29:31;2.63;;;1.48;;
72493;SDS011;60520;49.182;-0.348;2023-12-04T00:31:58;2.28;;;1.50;;
72493;SDS011;60520;49.182;-0.348;2023-12-04T00:34:25;1.65;;;1.35;;
72493;SDS011;60520;49.182;-0.348;2023-12-04T00:36:52;3.22;;;1.50;;
72493;SDS011;60520;49.182;-0.348;2023-12-04T00:39:21;2.10;;;1.50;;
72493;SDS011;60520;49.182;-0.348;2023-12-04T00:41:48;3.03;;;1.65;;
72493;SDS011;60520;49.182;-0.348;2023-12-04T00:44:15;1.80;;;1.30;;
72493;SDS011;60520;49.182;-0.348;2023-12-04T00:46:42;2.08;;;1.52;;
72493;SDS011;60520;49.182;-0.348;2023-12-04T00:49:09;1.42;;;1.10;;
72493;SDS011;60520;49.182;-0.348;2023-12-04T00:51:37;2.47;;;1.52;;
72493;SDS011;60520;49.182;-0.348;2023-12-04T00:54:04;1.83;;;1.30;;
72493;SDS011;60520;49.182;-0.348;2023-12-04T00:56:33;2.42;;;1.45;;
72493;SDS011;60520;49.182;-0.348;2023-12-04T00:59:00;2.22;;;1.30;;
72493;SDS011;60520;49.182;-0.348;2023-12-04T01:01:28;2.58;;;1.52;;
72493;SDS011;60520;49.182;-0.348;2023-12-04T01:03:56;1.92;;;1.35;;
72493;SDS011;60520;49.182;-0.348;2023-12-04T01:06:23;2.03;;;1.30;;
72493;SDS011;60520;49.182;-0.348;2023-12-04T01:08:50;1.52;;;1.35;;
72493;SDS011;60520;49.182;-0.348;2023-12-04T01:11:17;3.65;;;1.30;;
72493;SDS011;60520;49.182;-0.348;2023-12-04T01:13:46;1.52;;;1.30;;
72493;SDS011;60520;49.182;-0.348;2023-12-04T01:16:14;2.17;;;1.45;;
72493;SDS011;60520;49.182;-0.348;2023-12-04T01:18:43;2.08;;;1.33;;
72493;SDS011;60520;49.182;-0.348;2023-12-04T01:21:10;1.70;;;1.33;;
72493;SDS011;60520;49.182;-0.348;2023-12-04T01:23:37;2.17;;;1.48;;
72493;SDS011;60520;49.182;-0.348;2023-12-04T01:26:05;2.80;;;1.45;;
72493;SDS011;60520;49.182;-0.348;2023-12-04T01:28:32;1.63;;;1.20;;
72493;SDS011;60520;49.182;-0.348;2023-12-04T01:31:00;3.03;;;1.42;;
72493;SDS011;60520;49.182;-0.348;2023-12-04T01:33:27;1.48;;;1.30;;
72493;SDS011;60520;49.182;-0.348;2023-12-04T01:35:55;3.58;;;1.40;;
72493;SDS011;60520;49.182;-0.348;2023-12-04T01:38:22;5.10;;;1.27;;
72493;SDS011;60520;49.182;-0.348;2023-12-04T01:40:49;1.40;;;1.20;;
72493;SDS011;60520;49.182;-0.348;2023-12-04T01:43:16;2.45;;;1.60;;
72493;SDS011;60520;49.182;-0.348;2023-12-04T01:45:43;2.17;;;1.40;;
72493;SDS011;60520;49.182;-0.348;2023-12-04T01:48:12;2.45;;;1.40;;
72493;SDS011;60520;49.182;-0.348;2023-12-04T01:50:40;1.60;;;1.30;;
72493;SDS011;60520;49.182;-0.348;2023-12-04T01:53:07;1.55;;;1.17;;
72493;SDS011;60520;49.182;-0.348;2023-12-04T01:55:35;1.83;;;1.30;;
72493;SDS011;60520;49.182;-0.348;2023-12-04T01:58:04;1.92;;;1.30;;
72493;SDS011;60520;49.182;-0.348;2023-12-04T02:00:32;2.55;;;1.52;;
72493;SDS011;60520;49.182;-0.348;2023-12-04T02:02:59;1.85;;;1.30;;
72493;SDS011;60520;49.182;-0.348;2023-12-04T02:05:28;1.58;;;1.20;;
72493;SDS011;60520;49.182;-0.348;2023-12-04T02:07:55;2.45;;;1.38;;
72493;SDS011;60520;49.182;-0.348;2023-12-04T02:10:22;2.05;;;1.27;;
72493;SDS011;60520;49.182;-0.348;2023-12-04T02:12:50;1.40;;;1.13;;
72493;SDS011;60520;49.182;-0.348;2023-12-04T02:15:17;2.95;;;1.45;;
72493;SDS011;60520;49.182;-0.348;2023-12-04T02:17:44;1.60;;;1.30;;
72493;SDS011;60520;49.182;-0.348;2023-12-04T02:20:12;2.42;;;1.50;;
72493;SDS011;60520;49.182;-0.348;2023-12-04T02:22:41;2.42;;;1.30;;
72493;SDS011;60520;49.182;-0.348;2023-12-04T02:25:09;1.73;;;1.30;;
72493;SDS011;60520;49.182;-0.348;2023-12-04T02:27:38;1.85;;;1.33;;
72493;SDS011;60520;49.182;-0.348;2023-12-04T02:30:07;2.28;;;1.38;;
72493;SDS011;60520;49.182;-0.348;2023-12-04T02:32:37;1.88;;;1.13;;
72493;SDS011;60520;49.182;-0.348;2023-12-04T02:35:06;1.92;;;1.33;;
72493;SDS011;60520;49.182;-0.348;2023-12-04T02:37:33;2.55;;;1.40;;
72493;SDS011;60520;49.182;-0.348;2023-12-04T02:40:01;1.77;;;1.15;;
72493;SDS011;60520;49.182;-0.348;2023-12-04T02:42:30;1.45;;;1.10;;
72493;SDS011;60520;49.182;-0.348;2023-12-04T02:44:57;1.70;;;1.17;;
72493;SDS011;60520;49.182;-0.348;2023-12-04T02:47:24;2.22;;;1.40;;
72493;SDS011;60520;49.182;-0.348;2023-12-04T02:49:51;3.15;;;1.40;;
72493;SDS011;60520;49.182;-0.348;2023-12-04T02:52:19;1.92;;;1.30;;
72493;SDS011;60520;49.182;-0.348;2023-12-04T02:54:46;1.70;;;1.10;;
72493;SDS011;60520;49.182;-0.348;2023-12-04T02:57:13;2.42;;;1.20;;
72493;SDS011;60520;49.182;-0.348;2023-12-04T02:59:41;1.73;;;1.17;;
72493;SDS011;60520;49.182;-0.348;2023-12-04T03:02:09;4.93;;;1.42;;
72493;SDS011;60520;49.182;-0.348;2023-12-04T03:04:36;1.77;;;1.20;;
72493;SDS011;60520;49.182;-0.348;2023-12-04T03:07:03;3.05;;;1.30;;
72493;SDS011;60520;49.182;-0.348;2023-12-04T03:09:30;2.05;;;1.30;;
72493;SDS011;60520;49.182;-0.348;2023-12-04T03:11:57;1.90;;;1.30;;
72493;SDS011;60520;49.182;-0.348;2023-12-04T03:14:24;1.90;;;1.25;;
72493;SDS011;60520;49.182;-0.348;2023-12-04T03:16:53;3.25;;;1.30;;
72493;SDS011;60520;49.182;-0.348;2023-12-04T03:19:20;1.30;;;1.00;;
72493;SDS011;60520;49.182;-0.348;2023-12-04T03:21:47;1.45;;;1.10;;
72493;SDS011;60520;49.182;-0.348;2023-12-04T03:24:14;2.45;;;1.35;;
72493;SDS011;60520;49.182;-0.348;2023-12-04T03:26:41;2.00;;;1.30;;
72493;SDS011;60520;49.182;-0.348;2023-12-04T03:29:08;1.30;;;0.98;;
72493;SDS011;60520;49.182;-0.348;2023-12-04T03:31:36;2.15;;;1.20;;
72493;SDS011;60520;49.182;-0.348;2023-12-04T03:34:06;1.58;;;1.10;;
72493;SDS011;60520;49.182;-0.348;2023-12-04T03:36:33;3.70;;;1.30;;
72493;SDS011;60520;49.182;-0.348;2023-12-04T03:39:00;1.95;;;1.25;;
72493;SDS011;60520;49.182;-0.348;2023-12-04T03:41:28;1.88;;;1.30;;
72493;SDS011;60520;49.182;-0.348;2023-12-04T03:43:55;2.83;;;1.40;;
72493;SDS011;60520;49.182;-0.348;2023-12-04T03:46:22;1.58;;;1.10;;
72493;SDS011;60520;49.182;-0.348;2023-12-04T03:48:49;1.80;;;1.17;;
72493;SDS011;60520;49.182;-0.348;2023-12-04T03:51:18;1.80;;;1.30;;
72493;SDS011;60520;49.182;-0.348;2023-12-04T03:53:45;1.48;;;1.10;;
72493;SDS011;60520;49.182;-0.348;2023-12-04T03:56:12;2.78;;;1.05;;
72493;SDS011;60520;49.182;-0.348;2023-12-04T03:58:39;1.60;;;1.02;;
72493;SDS011;60520;49.182;-0.348;2023-12-04T04:01:06;2.13;;;1.20;;
72493;SDS011;60520;49.182;-0.348;2023-12-04T04:03:34;1.85;;;1.20;;
72493;SDS011;60520;49.182;-0.348;2023-12-04T04:06:01;3.42;;;1.13;;
72493;SDS011;60520;49.182;-0.348;2023-12-04T04:08:29;2.13;;;1.20;;
72493;SDS011;60520;49.182;-0.348;2023-12-04T04:10:56;2.03;;;1.17;;
72493;SDS011;60520;49.182;-0.348;2023-12-04T04:13:23;2.85;;;1.08;;
72493;SDS011;60520;49.182;-0.348;2023-12-04T04:15:51;3.17;;;1.10;;
72493;SDS011;60520;49.182;-0.348;2023-12-04T04:18:18;2.20;;;1.10;;
72493;SDS011;60520;49.182;-0.348;2023-12-04T04:20:45;2.40;;;1.30;;
72493;SDS011;60520;49.182;-0.348;2023-12-04T04:23:12;1.98;;;1.10;;
72493;SDS011;60520;49.182;-0.348;2023-12-04T04:25:41;2.17;;;1.20;;
72493;SDS011;60520;49.182;-0.348;2023-12-04T04:28:08;1.42;;;1.00;;
72493;SDS011;60520;49.182;-0.348;2023-12-04T04:30:35;1.65;;;1.17;;
72493;SDS011;60520;49.182;-0.348;2023-12-04T04:33:03;2.97;;;1.48;;
72493;SDS011;60520;49.182;-0.348;2023-12-04T04:35:30;1.40;;;1.10;;
72493;SDS011;60520;49.182;-0.348;2023-12-04T04:37:57;1.70;;;1.10;;
72493;SDS011;60520;49.182;-0.348;2023-12-04T04:40:25;1.75;;;1.17;;
72493;SDS011;60520;49.182;-0.348;2023-12-04T04:42:54;2.33;;;1.20;;
72493;SDS011;60520;49.182;-0.348;2023-12-04T04:45:21;1.45;;;1.00;;
72493;SDS011;60520;49.182;-0.348;2023-12-04T04:47:48;2.08;;;1.20;;
72493;SDS011;60520;49.182;-0.348;2023-12-04T04:50:15;1.95;;;1.40;;
72493;SDS011;60520;49.182;-0.348;2023-12-04T04:52:42;1.88;;;1.08;;
72493;SDS011;60520;49.182;-0.348;2023-12-04T04:55:09;2.30;;;1.27;;
72493;SDS011;60520;49.182;-0.348;2023-12-04T04:57:37;2.95;;;1.05;;
72493;SDS011;60520;49.182;-0.348;2023-12-04T05:00:06;2.75;;;1.10;;
72493;SDS011;60520;49.182;-0.348;2023-12-04T05:02:33;1.58;;;1.00;;
72493;SDS011;60520;49.182;-0.348;2023-12-04T05:05:02;2.05;;;1.10;;
72493;SDS011;60520;49.182;-0.348;2023-12-04T05:07:29;1.77;;;1.10;;
72493;SDS011;60520;49.182;-0.348;2023-12-04T05:09:56;2.20;;;1.00;;
72493;SDS011;60520;49.182;-0.348;2023-12-04T05:12:23;1.73;;;1.05;;
72493;SDS011;60520;49.182;-0.348;2023-12-04T05:14:51;2.45;;;1.30;;
72493;SDS011;60520;49.182;-0.348;2023-12-04T05:17:19;1.63;;;1.17;;
72493;SDS011;60520;49.182;-0.348;2023-12-04T05:19:46;1.75;;;1.00;;
72493;SDS011;60520;49.182;-0.348;2023-12-04T05:22:13;1.75;;;1.00;;
72493;SDS011;60520;49.182;-0.348;2023-12-04T05:24:41;1.80;;;1.20;;
72493;SDS011;60520;49.182;-0.348;2023-12-04T05:27:08;2.03;;;1.08;;
72493;SDS011;60520;49.182;-0.348;2023-12-04T05:29:35;2.25;;;1.08;;
72493;SDS011;60520;49.182;-0.348;2023-12-04T05:32:02;2.03;;;1.10;;
72493;SDS011;60520;49.182;-0.348;2023-12-04T05:34:31;2.70;;;1.25;;
72493;SDS011;60520;49.182;-0.348;2023-12-04T05:36:58;2.67;;;1.30;;
72493;SDS011;60520;49.182;-0.348;2023-12-04T05:39:25;1.95;;;1.20;;
72493;SDS011;60520;49.182;-0.348;2023-12-04T05:41:52;1.58;;;0.85;;
72493;SDS011;60520;49.182;-0.348;2023-12-04T05:44:20;3.60;;;1.20;;
72493;SDS011;60520;49.182;-0.348;2023-12-04T05:46:47;1.40;;;1.00;;
72493;SDS011;60520;49.182;-0.348;2023-12-04T05:49:15;1.73;;;1.20;;
72493;SDS011;60520;49.182;-0.348;2023-12-04T05:51:43;2.50;;;1.20;;
72493;SDS011;60520;49.182;-0.348;2023-12-04T05:54:10;4.82;;;1.20;;
72493;SDS011;60520;49.182;-0.348;2023-12-04T05:56:37;1.63;;;1.05;;
72493;SDS011;60520;49.182;-0.348;2023-12-04T05:59:05;1.25;;;1.00;;
72493;SDS011;60520;49.182;-0.348;2023-12-04T06:01:32;1.70;;;0.85;;
72493;SDS011;60520;49.182;-0.348;2023-12-04T06:03:59;1.98;;;1.23;;
72493;SDS011;60520;49.182;-0.348;2023-12-04T06:06:26;2.03;;;1.10;;
72493;SDS011;60520;49.182;-0.348;2023-12-04T06:08:55;2.58;;;1.10;;
72493;SDS011;60520;49.182;-0.348;2023-12-04T06:11:22;1.10;;;1.00;;
72493;SDS011;60520;49.182;-0.348;2023-12-04T06:13:49;1.70;;;1.10;;
72493;SDS011;60520;49.182;-0.348;2023-12-04T06:16:16;1.50;;;1.10;;
72493;SDS011;60520;49.182;-0.348;2023-12-04T06:18:43;1.05;;;0.80;;
72493;SDS011;60520;49.182;-0.348;2023-12-04T06:21:11;2.30;;;1.00;;
72493;SDS011;60520;49.182;-0.348;2023-12-04T06:23:38;1.85;;;0.95;;
72493;SDS011;60520;49.182;-0.348;2023-12-04T06:26:07;2.05;;;0.98;;
72493;SDS011;60520;49.182;-0.348;2023-12-04T06:28:35;1.50;;;1.00;;
72493;SDS011;60520;49.182;-0.348;2023-12-04T06:31:02;0.90;;;0.80;;
72493;SDS011;60520;49.182;-0.348;2023-12-04T06:33:30;2.15;;;1.00;;
72493;SDS011;60520;49.182;-0.348;2023-12-04T06:35:57;1.73;;;1.08;;
72493;SDS011;60520;49.182;-0.348;2023-12-04T06:38:25;1.20;;;0.90;;
72493;SDS011;60520;49.182;-0.348;2023-12-04T06:40:52;2.22;;;0.90;;
72493;SDS011;60520;49.182;-0.348;2023-12-04T06:43:21;0.80;;;0.70;;
72493;SDS011;60520;49.182;-0.348;2023-12-04T06:45:48;2.65;;;1.13;;
72493;SDS011;60520;49.182;-0.348;2023-12-04T06:48:16;0.85;;;0.75;;
72493;SDS011;60520;49.182;-0.348;2023-12-04T06:50:43;1.70;;;0.90;;
72493;SDS011;60520;49.182;-0.348;2023-12-04T06:53:10;0.98;;;0.80;;
72493;SDS011;60520;49.182;-0.348;2023-12-04T06:55:37;1.42;;;1.00;;
72493;SDS011;60520;49.182;-0.348;2023-12-04T06:58:04;1.85;;;1.00;;
72493;SDS011;60520;49.182;-0.348;2023-12-04T07:00:33;1.50;;;1.10;;
72493;SDS011;60520;49.182;-0.348;2023-12-04T07:03:00;1.65;;;1.10;;
72493;SDS011;60520;49.182;-0.348;2023-12-04T07:05:27;2.65;;;1.00;;
72493;SDS011;60520;49.182;-0.348;2023-12-04T07:07:54;1.65;;;0.90;;
72493;SDS011;60520;49.182;-0.348;2023-12-04T07:10:21;2.80;;;0.90;;
72493;SDS011;60520;49.182;-0.348;2023-12-04T07:12:49;0.90;;;0.80;;
72493;SDS011;60520;49.182;-0.348;2023-12-04T07:15:16;1.50;;;1.00;;
72493;SDS011;60520;49.182;-0.348;2023-12-04T07:17:44;1.67;;;0.80;;
72493;SDS011;60520;49.182;-0.348;2023-12-04T07:20:11;1.17;;;0.98;;
72493;SDS011;60520;49.182;-0.348;2023-12-04T07:22:39;1.90;;;1.02;;
72493;SDS011;60520;49.182;-0.348;2023-12-04T07:25:06;3.35;;;1.13;;
72493;SDS011;60520;49.182;-0.348;2023-12-04T07:27:33;1.17;;;0.88;;
72493;SDS011;60520;49.182;-0.348;2023-12-04T07:30:01;1.27;;;0.95;;
72493;SDS011;60520;49.182;-0.348;2023-12-04T07:32:28;2.22;;;0.80;;
72493;SDS011;60520;49.182;-0.348;2023-12-04T07:34:56;2.33;;;0.90;;
72493;SDS011;60520;49.182;-0.348;2023-12-04T07:37:24;1.42;;;1.00;;
72493;SDS011;60520;49.182;-0.348;2023-12-04T07:39:51;2.45;;;1.10;;
72493;SDS011;60520;49.182;-0.348;2023-12-04T07:42:18;2.33;;;0.80;;
72493;SDS011;60520;49.182;-0.348;2023-12-04T07:44:45;2.80;;;0.90;;
72493;SDS011;60520;49.182;-0.348;2023-12-04T07:47:13;1.52;;;0.95;;
72493;SDS011;60520;49.182;-0.348;2023-12-04T07:49:40;2.17;;;1.10;;
72493;SDS011;60520;49.182;-0.348;2023-12-04T07:52:09;1.48;;;0.90;;
72493;SDS011;60520;49.182;-0.348;2023-12-04T07:54:36;1.67;;;0.88;;
72493;SDS011;60520;49.182;-0.348;2023-12-04T07:57:04;2.75;;;0.90;;
72493;SDS011;60520;49.182;-0.348;2023-12-04T07:59:31;1.52;;;0.80;;
72493;SDS011;60520;49.182;-0.348;2023-12-04T08:01:58;2.60;;;1.00;;
72493;SDS011;60520;49.182;-0.348;2023-12-04T08:04:25;4.03;;;0.90;;
72493;SDS011;60520;49.182;-0.348;2023-12-04T08:06:52;1.52;;;1.00;;
72493;SDS011;60520;49.182;-0.348;2023-12-04T08:09:21;3.47;;;1.10;;
72493;SDS011;60520;49.182;-0.348;2023-12-04T08:11:48;1.30;;;0.80;;
72493;SDS011;60520;49.182;-0.348;2023-12-04T08:14:15;2.55;;;0.90;;
72493;SDS011;60520;49.182;-0.348;2023-12-04T08:16:42;2.17;;;1.10;;
72493;SDS011;60520;49.182;-0.348;2023-12-04T08:19:09;1.48;;;1.00;;
72493;SDS011;60520;49.182;-0.348;2023-12-04T08:21:39;1.02;;;0.73;;
72493;SDS011;60520;49.182;-0.348;2023-12-04T08:24:06;2.30;;;0.80;;
72493;SDS011;60520;49.182;-0.348;2023-12-04T08:26:35;2.75;;;0.80;;
72493;SDS011;60520;49.182;-0.348;2023-12-04T08:29:02;1.83;;;0.80;;
72493;SDS011;60520;49.182;-0.348;2023-12-04T08:31:29;1.42;;;1.00;;
72493;SDS011;60520;49.182;-0.348;2023-12-04T08:33:56;2.65;;;1.10;;
72493;SDS011;60520;49.182;-0.348;2023-12-04T08:36:23;1.55;;;1.10;;
72493;SDS011;60520;49.182;-0.348;2023-12-04T08:38:51;1.70;;;0.90;;
72493;SDS011;60520;49.182;-0.348;2023-12-04T08:41:18;1.52;;;0.80;;
72493;SDS011;60520;49.182;-0.348;2023-12-04T08:43:46;2.38;;;0.98;;
72493;SDS011;60520;49.182;-0.348;2023-12-04T08:46:13;1.98;;;1.02;;
72493;SDS011;60520;49.182;-0.348;2023-12-04T08:48:41;0.70;;;0.60;;
72493;SDS011;60520;49.182;-0.348;2023-12-04T08:51:08;2.10;;;0.80;;
72493;SDS011;60520;49.182;-0.348;2023-12-04T08:53:35;1.67;;;0.80;;
72493;SDS011;60520;49.182;-0.348;2023-12-04T08:56:03;2.08;;;0.80;;
72493;SDS011;60520;49.182;-0.348;2023-12-04T08:58:30;0.90;;;0.80;;
72493;SDS011;60520;49.182;-0.348;2023-12-04T09:00:58;1.77;;;0.70;;
72493;SDS011;60520;49.182;-0.348;2023-12-04T09:03:26;1.38;;;0.80;;
72493;SDS011;60520;49.182;-0.348;2023-12-04T09:05:53;1.02;;;0.70;;
72493;SDS011;60520;49.182;-0.348;2023-12-04T09:08:21;1.00;;;0.75;;
72493;SDS011;60520;49.182;-0.348;2023-12-04T09:10:48;2.50;;;0.70;;
72493;SDS011;60520;49.182;-0.348;2023-12-04T09:13:15;1.88;;;0.80;;
72493;SDS011;60520;49.182;-0.348;2023-12-04T09:15:42;1.70;;;0.90;;
72493;SDS011;60520;49.182;-0.348;2023-12-04T09:18:11;1.30;;;0.73;;
72493;SDS011;60520;49.182;-0.348;2023-12-04T09:20:38;2.33;;;0.82;;
72493;SDS011;60520;49.182;-0.348;2023-12-04T09:23:05;2.38;;;1.02;;
72493;SDS011;60520;49.182;-0.348;2023-12-04T09:25:32;1.75;;;0.82;;
72493;SDS011;60520;49.182;-0.348;2023-12-04T09:27:59;2.15;;;0.80;;
72493;SDS011;60520;49.182;-0.348;2023-12-04T09:30:27;1.00;;;0.70;;
72493;SDS011;60520;49.182;-0.348;2023-12-04T09:32:54;1.85;;;0.73;;
72493;SDS011;60520;49.182;-0.348;2023-12-04T09:35:23;1.75;;;0.68;;
72493;SDS011;60520;49.182;-0.348;2023-12-04T09:37:50;1.10;;;0.70;;
72493;SDS011;60520;49.182;-0.348;2023-12-04T09:40:17;1.10;;;0.73;;
72493;SDS011;60520;49.182;-0.348;2023-12-04T09:42:44;1.67;;;0.80;;
72493;SDS011;60520;49.182;-0.348;2023-12-04T09:45:12;1.25;;;0.75;;
72493;SDS011;60520;49.182;-0.348;2023-12-04T09:47:39;1.15;;;0.70;;
72493;SDS011;60520;49.182;-0.348;2023-12-04T09:50:07;2.05;;;0.80;;
72493;SDS011;60520;49.182;-0.348;2023-12-04T09:52:36;1.10;;;0.80;;
72493;SDS011;60520;49.182;-0.348;2023-12-04T09:55:03;0.90;;;0.77;;
72493;SDS011;60520;49.182;-0.348;2023-12-04T09:57:30;0.93;;;0.68;;
72493;SDS011;60520;49.182;-0.348;2023-12-04T09:59:58;0.82;;;0.63;;
72493;SDS011;60520;49.182;-0.348;2023-12-04T10:02:27;1.80;;;0.80;;
72493;SDS011;60520;49.182;-0.348;2023-12-04T10:04:54;1.13;;;0.73;;
72493;SDS011;60520;49.182;-0.348;2023-12-04T10:07:21;2.83;;;0.77;;
72493;SDS011;60520;49.182;-0.348;2023-12-04T10:09:50;1.13;;;0.60;;
72493;SDS011;60520;49.182;-0.348;2023-12-04T10:12:18;2.25;;;0.68;;
72493;SDS011;60520;49.182;-0.348;2023-12-04T10:14:50;1.52;;;0.73;;
72493;SDS011;60520;49.182;-0.348;2023-12-04T10:17:32;0.77;;;0.60;;
72493;SDS011;60520;49.182;-0.348;2023-12-04T10:20:03;1.63;;;0.85;;
72493;SDS011;60520;49.182;-0.348;2023-12-04T10:22:35;0.90;;;0.60;;
72493;SDS011;60520;49.182;-0.348;2023-12-04T10:25:12;0.65;;;0.60;;
72493;SDS011;60520;49.182;-0.348;2023-12-04T10:27:40;1.55;;;0.80;;
72493;SDS011;60520;49.182;-0.348;2023-12-04T10:30:09;1.38;;;0.80;;
72493;SDS011;60520;49.182;-0.348;2023-12-04T10:32:38;1.88;;;0.80;;
72493;SDS011;60520;49.182;-0.348;2023-12-04T10:35:07;1.13;;;0.75;;
72493;SDS011;60520;49.182;-0.348;2023-12-04T10:37:35;2.00;;;0.70;;
72493;SDS011;60520;49.182;-0.348;2023-12-04T10:40:03;1.98;;;0.70;;
72493;SDS011;60520;49.182;-0.348;2023-12-04T10:42:35;0.70;;;0.60;;
72493;SDS011;60520;49.182;-0.348;2023-12-04T10:45:02;1.23;;;0.70;;
72493;SDS011;60520;49.182;-0.348;2023-12-04T10:47:31;0.77;;;0.60;;
72493;SDS011;60520;49.182;-0.348;2023-12-04T10:49:59;0.80;;;0.60;;
72493;SDS011;60520;49.182;-0.348;2023-12-04T10:52:28;1.83;;;0.77;;
72493;SDS011;60520;49.182;-0.348;2023-12-04T10:54:55;1.17;;;0.68;;
72493;SDS011;60520;49.182;-0.348;2023-12-04T10:57:25;1.02;;;0.60;;
72493;SDS011;60520;49.182;-0.348;2023-12-04T10:59:56;1.08;;;0.60;;
72493;SDS011;60520;49.182;-0.348;2023-12-04T11:02:25;1.02;;;0.70;;
72493;SDS011;60520;49.182;-0.348;2023-12-04T11:04:54;1.23;;;0.80;;
72493;SDS011;60520;49.182;-0.348;2023-12-04T11:07:22;1.00;;;0.50;;
72493;SDS011;60520;49.182;-0.348;2023-12-04T11:09:52;1.45;;;0.70;;
72493;SDS011;60520;49.182;-0.348;2023-12-04T11:12:21;1.50;;;0.70;;
72493;SDS011;60520;49.182;-0.348;2023-12-04T11:14:50;1.05;;;0.65;;
72493;SDS011;60520;49.182;-0.348;2023-12-04T11:17:21;0.73;;;0.70;;
72493;SDS011;60520;49.182;-0.348;2023-12-04T11:19:51;0.82;;;0.60;;
72493;SDS011;60520;49.182;-0.348;2023-12-04T11:22:20;1.33;;;0.80;;
72493;SDS011;60520;49.182;-0.348;2023-12-04T11:24:48;0.80;;;0.50;;
72493;SDS011;60520;49.182;-0.348;2023-12-04T11:27:15;1.05;;;0.60;;
72493;SDS011;60520;49.182;-0.348;2023-12-04T11:29:42;0.80;;;0.70;;
72493;SDS011;60520;49.182;-0.348;2023-12-04T11:32:12;0.73;;;0.50;;
72493;SDS011;60520;49.182;-0.348;2023-12-04T11:34:48;0.70;;;0.60;;
72493;SDS011;60520;49.182;-0.348;2023-12-04T11:37:15;1.13;;;0.60;;
72493;SDS011;60520;49.182;-0.348;2023-12-04T11:39:42;0.98;;;0.60;;
72493;SDS011;60520;49.182;-0.348;2023-12-04T11:42:09;0.85;;;0.63;;
72493;SDS011;60520;49.182;-0.348;2023-12-04T11:44:37;1.48;;;0.52;;
72493;SDS011;60520;49.182;-0.348;2023-12-04T11:47:07;1.10;;;0.73;;
72493;SDS011;60520;49.182;-0.348;2023-12-04T11:49:35;0.80;;;0.60;;
72493;SDS011;60520;49.182;-0.348;2023-12-04T11:52:04;1.15;;;0.65;;
72493;SDS011;60520;49.182;-0.348;2023-12-04T11:57:19;1.48;;;0.70;;
72493;SDS011;60520;49.182;-0.348;2023-12-04T11:59:47;0.82;;;0.63;;
72493;SDS011;60520;49.182;-0.348;2023-12-04T12:02:15;1.25;;;0.65;;
72493;SDS011;60520;49.182;-0.348;2023-12-04T12:04:43;0.95;;;0.60;;
72493;SDS011;60520;49.182;-0.348;2023-12-04T12:07:12;0.60;;;0.50;;
72493;SDS011;60520;49.182;-0.348;2023-12-04T12:09:39;1.00;;;0.73;;
72493;SDS011;60520;49.182;-0.348;2023-12-04T12:12:06;0.93;;;0.63;;
72493;SDS011;60520;49.182;-0.348;2023-12-04T12:14:34;0.80;;;0.55;;
72493;SDS011;60520;49.182;-0.348;2023-12-04T12:17:01;1.38;;;0.70;;
72493;SDS011;60520;49.182;-0.348;2023-12-04T12:19:28;1.95;;;0.60;;
72493;SDS011;60520;49.182;-0.348;2023-12-04T12:21:55;1.25;;;0.73;;
72493;SDS011;60520;49.182;-0.348;2023-12-04T12:24:24;0.75;;;0.50;;
72493;SDS011;60520;49.182;-0.348;2023-12-04T12:26:52;0.50;;;0.50;;
72493;SDS011;60520;49.182;-0.348;2023-12-04T12:29:20;0.60;;;0.50;;
72493;SDS011;60520;49.182;-0.348;2023-12-04T12:31:47;1.40;;;0.52;;
72493;SDS011;60520;49.182;-0.348;2023-12-04T12:34:14;0.50;;;0.50;;
72493;SDS011;60520;49.182;-0.348;2023-12-04T12:36:42;0.60;;;0.50;;
72493;SDS011;60520;49.182;-0.348;2023-12-04T12:39:09;1.10;;;0.57;;
72493;SDS011;60520;49.182;-0.348;2023-12-04T12:41:38;1.02;;;0.60;;
72493;SDS011;60520;49.182;-0.348;2023-12-04T12:44:05;1.05;;;0.60;;
72493;SDS011;60520;49.182;-0.348;2023-12-04T12:46:33;0.57;;;0.57;;
72493;SDS011;60520;49.182;-0.348;2023-12-04T12:49:02;1.02;;;0.70;;
72493;SDS011;60520;49.182;-0.348;2023-12-04T12:51:30;1.25;;;0.60;;
72493;SDS011;60520;49.182;-0.348;2023-12-04T12:53:57;0.70;;;0.60;;
72493;SDS011;60520;49.182;-0.348;2023-12-04T12:56:24;0.82;;;0.60;;
72493;SDS011;60520;49.182;-0.348;2023-12-04T12:58:53;0.93;;;0.52;;
72493;SDS011;60520;49.182;-0.348;2023-12-04T13:01:22;0.90;;;0.60;;
72493;SDS011;60520;49.182;-0.348;2023-12-04T13:03:50;0.82;;;0.50;;
72493;SDS011;60520;49.182;-0.348;2023-12-04T13:06:18;0.50;;;0.50;;
72493;SDS011;60520;49.182;-0.348;2023-12-04T13:08:45;1.77;;;0.60;;
72493;SDS011;60520;49.182;-0.348;2023-12-04T13:11:12;0.60;;;0.50;;
72493;SDS011;60520;49.182;-0.348;2023-12-04T13:13:39;0.60;;;0.50;;
72493;SDS011;60520;49.182;-0.348;2023-12-04T13:16:08;1.40;;;0.60;;
72493;SDS011;60520;49.182;-0.348;2023-12-04T13:18:36;1.15;;;0.60;;
72493;SDS011;60520;49.182;-0.348;2023-12-04T13:21:04;0.63;;;0.40;;
72493;SDS011;60520;49.182;-0.348;2023-12-04T13:23:31;0.65;;;0.52;;
72493;SDS011;60520;49.182;-0.348;2023-12-04T13:25:58;1.58;;;0.60;;
72493;SDS011;60520;49.182;-0.348;2023-12-04T13:28:25;0.40;;;0.40;;
72493;SDS011;60520;49.182;-0.348;2023-12-04T13:30:53;1.00;;;0.50;;
72493;SDS011;60520;49.182;-0.348;2023-12-04T13:33:22;0.40;;;0.40;;
72493;SDS011;60520;49.182;-0.348;2023-12-04T13:35:50;0.50;;;0.50;;
72493;SDS011;60520;49.182;-0.348;2023-12-04T13:38:17;0.55;;;0.50;;
72493;SDS011;60520;49.182;-0.348;2023-12-04T13:40:44;0.60;;;0.55;;
72493;SDS011;60520;49.182;-0.348;2023-12-04T13:43:24;0.77;;;0.50;;
72493;SDS011;60520;49.182;-0.348;2023-12-04T13:46:09;0.50;;;0.50;;
72493;SDS011;60520;49.182;-0.348;2023-12-04T13:48:37;1.90;;;0.60;;
72493;SDS011;60520;49.182;-0.348;2023-12-04T13:51:06;1.48;;;0.50;;
72493;SDS011;60520;49.182;-0.348;2023-12-04T13:53:33;0.90;;;0.65;;
72493;SDS011;60520;49.182;-0.348;2023-12-04T13:56:01;0.50;;;0.50;;
72493;SDS011;60520;49.182;-0.348;2023-12-04T13:58:50;0.60;;;0.50;;
72493;SDS011;60520;49.182;-0.348;2023-12-04T14:01:21;0.57;;;0.40;;
72493;SDS011;60520;49.182;-0.348;2023-12-04T14:03:50;0.70;;;0.55;;
72493;SDS011;60520;49.182;-0.348;2023-12-04T14:06:18;0.70;;;0.57;;
72493;SDS011;60520;49.182;-0.348;2023-12-04T14:08:45;0.70;;;0.50;;
72493;SDS011;60520;49.182;-0.348;2023-12-04T14:11:13;0.98;;;0.52;;
72493;SDS011;60520;49.182;-0.348;2023-12-04T14:13:40;0.77;;;0.52;;
72493;SDS011;60520;49.182;-0.348;2023-12-04T14:16:08;0.63;;;0.60;;
72493;SDS011;60520;49.182;-0.348;2023-12-04T14:18:35;1.15;;;0.50;;
72493;SDS011;60520;49.182;-0.348;2023-12-04T14:21:04;1.33;;;0.70;;
72493;SDS011;60520;49.182;-0.348;2023-12-04T14:23:31;0.80;;;0.60;;
72493;SDS011;60520;49.182;-0.348;2023-12-04T14:25:59;1.02;;;0.60;;
72493;SDS011;60520;49.182;-0.348;2023-12-04T14:28:27;1.10;;;0.60;;
72493;SDS011;60520;49.182;-0.348;2023-12-04T14:30:54;0.57;;;0.40;;
72493;SDS011;60520;49.182;-0.348;2023-12-04T14:33:21;0.82;;;0.60;;
72493;SDS011;60520;49.182;-0.348;2023-12-04T14:35:48;0.40;;;0.40;;
72493;SDS011;60520;49.182;-0.348;2023-12-04T14:38:17;0.52;;;0.45;;